Time;durP1;ratioP1;P1;durP2;ratioP2;P2;SDS_P1;SDS_P2;PMS_P1;PMS_P2;Temp;Humidity;BMP_temperature;BMP_pressure;BME280_temperature;BME280_humidity;BME280_pressure;Samples;Min_cycle;Max_cycle;Signal;HPM_P1;HPM_P2
2022/10/30 00:01:03;;;;;;;37.58;22.38;;;14.70;1.00;;;;;;4936517;29;20196;-80
2022/10/30 00:03:31;;;;;;;35.10;22.40;;;14.70;1.00;;;;;;4937296;29;20203;-80
2022/10/30 00:05:58;;;;;;;39.38;21.35;;;14.70;1.00;;;;;;4937090;29;20202;-79
2022/10/30 00:08:25;;;;;;;38.38;21.60;;;14.70;1.00;;;;;;4937028;29;20682;-80
2022/10/30 00:10:53;;;;;;;35.97;21.93;;;14.60;1.00;;;;;;4937217;29;20253;-79
2022/10/30 00:13:21;;;;;;;37.60;21.52;;;14.60;99.90;;;;;;4936783;29;20198;-80
2022/10/30 00:15:50;;;;;;;35.47;20.50;;;14.60;99.90;;;;;;4936958;29;20211;-79
2022/10/30 00:18:17;;;;;;;35.30;19.15;;;14.50;99.90;;;;;;4936880;29;20793;-79
2022/10/30 00:20:46;;;;;;;33.00;19.10;;;14.50;99.90;;;;;;4936696;29;20195;-80
2022/10/30 00:23:13;;;;;;;30.02;18.52;;;14.50;99.90;;;;;;4935164;29;20200;-79
2022/10/30 00:25:40;;;;;;;31.48;17.50;;;14.50;99.90;;;;;;4936634;29;20717;-79
2022/10/30 00:28:07;;;;;;;29.50;17.77;;;14.50;99.90;;;;;;4936217;29;20278;-78
2022/10/30 00:30:35;;;;;;;29.17;16.97;;;14.50;99.90;;;;;;4936899;29;20199;-80
2022/10/30 00:33:02;;;;;;;31.70;18.27;;;14.50;99.90;;;;;;4936367;29;20248;-80
2022/10/30 00:35:29;;;;;;;28.67;17.67;;;14.50;35.60;;;;;;4940720;29;20236;-80
2022/10/30 00:37:58;;;;;;;28.43;17.60;;;14.50;59.10;;;;;;4936577;29;20265;-79
2022/10/30 00:40:25;;;;;;;35.25;18.55;;;14.40;99.90;;;;;;4936650;29;20721;-79
2022/10/30 00:42:52;;;;;;;32.67;18.77;;;14.40;99.90;;;;;;4936444;29;20261;-79
2022/10/30 00:45:19;;;;;;;34.00;19.70;;;14.40;1.00;;;;;;4936642;29;20450;-80
2022/10/30 00:47:51;;;;;;;24.85;16.35;;;14.30;99.90;;;;;;4936258;29;20220;-79
2022/10/30 00:50:21;;;;;;;31.42;16.92;;;14.20;99.90;;;;;;4936070;29;20252;-79
2022/10/30 00:52:51;;;;;;;25.95;15.88;;;14.20;99.90;;;;;;4936245;29;20332;-80
2022/10/30 00:55:23;;;;;;;23.87;15.70;;;14.10;99.90;;;;;;4936307;29;20259;-80
2022/10/30 00:57:52;;;;;;;31.55;16.15;;;14.00;99.90;;;;;;4936153;29;20727;-80
2022/10/30 01:00:21;;;;;;;24.63;16.35;;;13.90;99.90;;;;;;4936266;29;20195;-80
2022/10/30 01:02:48;;;;;;;27.83;16.30;;;13.80;99.90;;;;;;4935834;29;20199;-80
2022/10/30 01:05:18;;;;;;;24.77;16.30;;;13.70;1.00;;;;;;4935929;29;20198;-79
2022/10/30 01:07:45;;;;;;;28.83;16.70;;;13.70;1.00;;;;;;4936204;29;20611;-79
2022/10/30 01:10:13;;;;;;;23.37;16.27;;;13.70;89.80;;;;;;4935704;29;20329;-80
2022/10/30 01:12:44;;;;;;;26.63;16.23;;;13.60;19.30;;;;;;4935455;29;20210;-80
2022/10/30 01:15:12;;;;;;;32.57;17.57;;;13.60;1.00;;;;;;4935973;29;20256;-79
2022/10/30 01:18:01;;;;;;;29.80;17.57;;;13.60;1.00;;;;;;4936196;29;20286;-80
2022/10/30 01:20:51;;;;;;;32.97;18.20;;;13.60;99.90;;;;;;4936142;29;20201;-78
2022/10/30 01:23:28;;;;;;;34.77;17.87;;;13.60;99.90;;;;;;4935363;29;20192;-80
2022/10/30 01:26:07;;;;;;;34.93;17.80;;;13.60;99.90;;;;;;4935933;29;20254;-80
2022/10/30 01:28:51;;;;;;;29.67;17.50;;;13.60;99.90;;;;;;4935716;29;20240;-79
2022/10/30 01:31:40;;;;;;;26.40;16.70;;;13.60;99.90;;;;;;4935357;29;20721;-80
2022/10/30 01:34:18;;;;;;;38.67;18.97;;;13.60;99.90;;;;;;4934642;29;20194;-79
2022/10/30 01:36:51;;;;;;;35.67;18.80;;;13.60;99.90;;;;;;4935843;29;20230;-80
2022/10/30 01:39:21;;;;;;;27.90;17.47;;;13.50;99.90;;;;;;4935290;29;20247;-80
2022/10/30 01:41:48;;;;;;;37.80;18.00;;;13.50;99.90;;;;;;4934864;29;20655;-80
2022/10/30 01:44:21;;;;;;;42.00;20.17;;;13.50;99.90;;;;;;4935003;29;20252;-79
2022/10/30 01:47:11;;;;;;;34.87;19.27;;;13.40;1.00;;;;;;4935219;29;20276;-79
2022/10/30 01:50:12;;;;;;;34.97;19.83;;;13.40;1.00;;;;;;4935098;29;20753;-79
2022/10/30 01:52:46;;;;;;;26.53;16.73;;;13.30;1.00;;;;;;4933075;28;20206;-78
2022/10/30 01:55:25;;;;;;;32.33;19.23;;;13.30;1.00;;;;;;4934297;29;20207;-80
2022/10/30 01:57:58;;;;;;;35.67;19.13;;;13.30;1.00;;;;;;4935095;29;20711;-80
2022/10/30 02:00:28;;;;;;;36.20;19.20;;;13.30;1.00;;;;;;4935325;29;20192;-80
2022/10/30 02:02:55;;;;;;;29.83;17.63;;;13.30;98.60;;;;;;4934967;29;20205;-80
2022/10/30 02:05:31;;;;;;;25.97;16.50;;;13.30;63.90;;;;;;4935060;29;20202;-80
2022/10/30 02:07:58;;;;;;;22.33;14.40;;;13.30;1.00;;;;;;4935322;29;20250;-80
2022/10/30 02:10:26;;;;;;;22.10;15.03;;;13.30;1.00;;;;;;4934950;29;20259;-78
2022/10/30 02:12:53;;;;;;;28.53;16.53;;;13.20;99.90;;;;;;4934620;29;20204;-80
2022/10/30 02:15:20;;;;;;;26.73;16.43;;;13.20;1.00;;;;;;4934726;29;20211;-80
2022/10/30 02:17:49;;;;;;;32.53;17.70;;;13.20;1.00;;;;;;4934753;29;20258;-80
2022/10/30 02:20:18;;;;;;;31.40;18.27;;;13.10;1.00;;;;;;4934959;29;20255;-80
2022/10/30 02:22:45;;;;;;;36.17;17.50;;;13.00;1.00;;;;;;4935025;29;20200;-79
2022/10/30 02:25:13;;;;;;;39.83;17.80;;;13.00;1.00;;;;;;4934405;29;20743;-79
2022/10/30 02:27:40;;;;;;;29.97;16.73;;;12.90;1.00;;;;;;4934495;29;20199;-80
2022/10/30 02:30:09;;;;;;;48.00;21.47;;;12.80;1.00;;;;;;4934422;29;20262;-80
2022/10/30 02:32:36;;;;;;;45.53;20.57;;;12.80;1.00;;;;;;4934869;29;20199;-80
2022/10/30 02:35:03;;;;;;;44.50;21.20;;;12.80;99.90;;;;;;4934507;29;20265;-80
2022/10/30 02:37:34;;;;;;;247.30;28.53;;;12.70;1.00;;;;;;4932487;29;20250;-79
2022/10/30 02:40:01;;;;;;;297.70;32.13;;;12.70;1.00;;;;;;4935292;29;20202;-79
2022/10/30 02:42:28;;;;;;;123.97;27.67;;;12.70;1.00;;;;;;4934420;29;20593;-79
2022/10/30 02:44:55;;;;;;;49.93;22.40;;;12.70;1.00;;;;;;4934832;29;20202;-80
2022/10/30 02:47:22;;;;;;;35.03;19.90;;;12.70;1.00;;;;;;4938312;29;20250;-79
2022/10/30 02:49:49;;;;;;;35.47;18.23;;;12.70;1.00;;;;;;4938616;29;20328;-78
2022/10/30 02:52:16;;;;;;;32.13;18.53;;;12.80;18.90;;;;;;4938634;29;20254;-80
2022/10/30 02:54:44;;;;;;;41.70;17.80;;;12.70;1.00;;;;;;4938303;29;20196;-79
2022/10/30 02:57:11;;;;;;;35.43;18.83;;;12.80;1.00;;;;;;4938391;29;20207;-80
2022/10/30 02:59:38;;;;;;;31.87;17.70;;;12.70;1.00;;;;;;4937956;29;20191;-79
2022/10/30 03:02:05;;;;;;;46.03;20.43;;;12.70;1.00;;;;;;4938502;29;20202;-80
2022/10/30 03:04:32;;;;;;;33.60;17.80;;;12.70;1.00;;;;;;4938287;29;20595;-80
2022/10/30 03:06:59;;;;;;;29.20;16.80;;;12.80;99.90;;;;;;4938428;29;20279;-80
2022/10/30 03:09:26;;;;;;;37.07;18.20;;;12.80;99.90;;;;;;4938195;29;20219;-79
2022/10/30 03:11:54;;;;;;;29.83;17.17;;;12.70;26.80;;;;;;4937969;29;20254;-80
2022/10/30 03:14:21;;;;;;;31.70;16.73;;;12.70;9.20;;;;;;4938222;29;20257;-79
2022/10/30 03:16:51;;;;;;;28.03;16.80;;;12.70;1.00;;;;;;4937870;29;20660;-79
2022/10/30 03:19:18;;;;;;;32.53;17.03;;;12.70;1.00;;;;;;4937751;29;20203;-79
2022/10/30 03:21:45;;;;;;;28.23;15.97;;;12.70;1.00;;;;;;4937807;29;20204;-80
2022/10/30 03:24:12;;;;;;;29.17;16.73;;;12.80;1.00;;;;;;4938166;29;20250;-80
2022/10/30 03:26:39;;;;;;;43.37;20.00;;;12.90;1.00;;;;;;4937623;29;20199;-78
2022/10/30 03:29:08;;;;;;;35.73;17.50;;;12.90;1.00;;;;;;4938310;29;20297;-81
2022/10/30 03:31:35;;;;;;;33.33;18.20;;;13.00;99.90;;;;;;4937836;29;20195;-80
2022/10/30 03:34:02;;;;;;;38.03;18.37;;;13.00;99.90;;;;;;4937935;29;20203;-80
2022/10/30 03:36:29;;;;;;;31.77;16.70;;;13.00;99.90;;;;;;4937824;29;20258;-80
2022/10/30 03:38:56;;;;;;;34.60;18.20;;;13.00;99.90;;;;;;4937986;29;20267;-79
2022/10/30 03:41:23;;;;;;;40.33;20.27;;;13.10;99.90;;;;;;4937719;29;20198;-79
2022/10/30 03:43:51;;;;;;;31.33;18.53;;;13.10;99.90;;;;;;4937244;29;20247;-80
2022/10/30 03:46:19;;;;;;;39.50;20.63;;;13.10;99.90;;;;;;4937451;29;20659;-80
2022/10/30 03:48:49;;;;;;;47.57;22.03;;;13.10;1.00;;;;;;4937478;29;20292;-79
2022/10/30 03:51:16;;;;;;;44.30;19.90;;;13.10;1.00;;;;;;4937546;29;20193;-79
2022/10/30 03:53:43;;;;;;;45.67;20.30;;;13.20;1.00;;;;;;4937000;29;20326;-80
2022/10/30 03:56:10;;;;;;;39.93;20.37;;;13.20;1.00;;;;;;4936902;29;20264;-80
2022/10/30 03:58:37;;;;;;;39.87;20.50;;;13.10;1.00;;;;;;4937602;29;20211;-79
2022/10/30 04:01:08;;;;;;;42.30;20.73;;;13.10;40.40;;;;;;4937279;29;20659;-80
2022/10/30 04:03:36;;;;;;;48.07;20.77;;;13.10;99.90;;;;;;4937715;29;20201;-79
2022/10/30 04:06:05;;;;;;;46.17;20.77;;;13.10;99.90;;;;;;4937006;29;20208;-80
2022/10/30 04:08:32;;;;;;;43.50;20.33;;;13.10;1.00;;;;;;4924049;29;20233;-79
2022/10/30 04:10:59;;;;;;;38.87;20.13;;;13.10;1.00;;;;;;4936933;29;20258;-80
2022/10/30 04:13:26;;;;;;;40.10;20.87;;;13.00;1.00;;;;;;4936612;29;20660;-79
2022/10/30 04:15:53;;;;;;;29.63;17.37;;;13.00;1.00;;;;;;4937259;29;20208;-80
2022/10/30 04:18:20;;;;;;;29.23;15.93;;;13.00;1.00;;;;;;4936752;29;20654;-80
2022/10/30 04:20:49;;;;;;;31.03;17.57;;;13.00;1.00;;;;;;4936500;29;20606;-79
2022/10/30 04:23:17;;;;;;;33.67;17.40;;;13.00;1.00;;;;;;4936928;29;20263;-79
2022/10/30 04:25:44;;;;;;;36.37;18.33;;;13.00;1.00;;;;;;4936834;29;20259;-79
2022/10/30 04:28:12;;;;;;;37.53;19.30;;;13.00;1.00;;;;;;4936763;29;20690;-80
2022/10/30 04:30:39;;;;;;;40.97;19.27;;;13.00;99.90;;;;;;4936784;29;20275;-80
2022/10/30 04:33:08;;;;;;;60.80;20.20;;;12.90;1.00;;;;;;4936899;29;20256;-78
2022/10/30 04:35:37;;;;;;;42.27;19.43;;;12.80;1.00;;;;;;4936560;29;20228;-79
2022/10/30 04:38:07;;;;;;;46.93;20.50;;;12.80;1.00;;;;;;4936659;29;20646;-79
2022/10/30 04:40:36;;;;;;;209.03;31.57;;;12.70;1.00;;;;;;4936480;29;20538;-79
2022/10/30 04:43:03;;;;;;;175.57;31.30;;;12.70;1.00;;;;;;4936144;29;20202;-80
2022/10/30 04:45:31;;;;;;;453.97;42.90;;;12.70;1.00;;;;;;4936286;29;20661;-80
2022/10/30 04:48:02;;;;;;;389.10;37.23;;;12.60;86.30;;;;;;4936757;29;20204;-79
2022/10/30 04:50:30;;;;;;;320.70;33.33;;;12.60;99.90;;;;;;4936405;29;20308;-79
2022/10/30 04:53:02;;;;;;;129.10;23.63;;;12.60;1.00;;;;;;4936349;29;20246;-80
2022/10/30 04:55:30;;;;;;;133.80;25.53;;;12.60;1.00;;;;;;4936111;29;20251;-80
2022/10/30 04:57:58;;;;;;;40.13;19.60;;;12.60;1.00;;;;;;4936424;29;20195;-80
2022/10/30 05:00:27;;;;;;;60.93;22.77;;;12.60;1.00;;;;;;4936311;29;20208;-79
2022/10/30 05:02:54;;;;;;;31.93;17.97;;;12.50;99.90;;;;;;4936295;29;20258;-78
2022/10/30 05:05:21;;;;;;;31.87;18.33;;;12.50;99.90;;;;;;4935467;29;20197;-79
2022/10/30 05:07:48;;;;;;;30.93;18.07;;;12.50;1.00;;;;;;4934730;29;20199;-80
2022/10/30 05:10:15;;;;;;;34.33;20.27;;;12.50;99.90;;;;;;4935368;29;20276;-78
2022/10/30 05:12:45;;;;;;;41.90;21.07;;;12.50;99.90;;;;;;4936362;29;20208;-80
2022/10/30 05:15:13;;;;;;;48.83;23.60;;;12.50;99.90;;;;;;4936330;29;20432;-79
2022/10/30 05:17:40;;;;;;;43.53;21.77;;;12.50;99.90;;;;;;4936344;29;20614;-79
2022/10/30 05:20:09;;;;;;;44.83;22.23;;;12.50;1.00;;;;;;4935733;29;20200;-80
2022/10/30 05:22:36;;;;;;;41.77;21.53;;;12.50;99.90;;;;;;4935676;29;20202;-79
2022/10/30 05:25:03;;;;;;;47.13;23.60;;;12.50;1.00;;;;;;4935799;29;20207;-80
2022/10/30 05:27:30;;;;;;;38.87;22.00;;;12.60;1.00;;;;;;4935573;29;20614;-79
2022/10/30 05:29:58;;;;;;;106.77;25.60;;;12.60;1.00;;;;;;4935672;29;20227;-80
2022/10/30 05:32:25;;;;;;;181.43;28.97;;;12.60;99.90;;;;;;4935270;29;20207;-79
2022/10/30 05:34:52;;;;;;;118.87;24.83;;;12.60;99.90;;;;;;4935427;29;20250;-79
2022/10/30 05:37:19;;;;;;;59.83;19.73;;;12.60;99.90;;;;;;4935847;29;20580;-80
2022/10/30 05:39:46;;;;;;;74.00;25.07;;;12.60;99.90;;;;;;4935519;29;20203;-80
2022/10/30 05:42:13;;;;;;;118.67;27.27;;;12.60;99.90;;;;;;4934910;29;20255;-79
2022/10/30 05:44:40;;;;;;;71.13;26.67;;;12.60;99.90;;;;;;4935882;29;20253;-79
2022/10/30 05:47:10;;;;;;;88.93;24.80;;;12.60;1.00;;;;;;4935118;29;20657;-79
2022/10/30 05:49:37;;;;;;;60.63;24.43;;;12.60;1.00;;;;;;4935291;29;20294;-80
2022/10/30 05:52:04;;;;;;;46.83;21.73;;;12.60;1.00;;;;;;4934803;29;20195;-79
2022/10/30 05:54:31;;;;;;;55.50;24.17;;;12.60;1.00;;;;;;4935328;29;20286;-79
2022/10/30 05:56:58;;;;;;;41.47;21.60;;;12.60;1.00;;;;;;4935505;29;20257;-80
2022/10/30 05:59:25;;;;;;;47.43;22.37;;;12.70;1.00;;;;;;4934980;29;20712;-78
2022/10/30 06:01:52;;;;;;;41.13;21.63;;;12.70;1.00;;;;;;4934950;29;20207;-80
2022/10/30 06:04:21;;;;;;;39.40;20.23;;;12.70;1.00;;;;;;4937231;29;20215;-81
2022/10/30 06:06:51;;;;;;;44.00;22.40;;;12.70;1.00;;;;;;4943708;29;20206;-82
2022/10/30 06:09:19;;;;;;;41.27;21.93;;;12.70;99.90;;;;;;4945074;28;20727;-81
2022/10/30 06:11:55;;;;;;;52.17;22.40;;;12.80;99.90;;;;;;4958847;28;20198;-82
2022/10/30 06:14:22;;;;;;;40.40;21.07;;;12.80;99.90;;;;;;4939167;28;20230;-81
2022/10/30 06:16:49;;;;;;;42.87;22.03;;;12.80;63.70;;;;;;4934559;29;20559;-81
2022/10/30 06:19:16;;;;;;;50.17;22.50;;;12.90;1.00;;;;;;4934459;29;20657;-81
2022/10/30 06:21:44;;;;;;;47.70;24.70;;;12.90;1.00;;;;;;4934378;29;20253;-80
2022/10/30 06:24:11;;;;;;;50.93;25.50;;;13.00;44.90;;;;;;4935140;29;20270;-81
2022/10/30 06:26:38;;;;;;;48.83;24.43;;;13.00;99.90;;;;;;4934910;29;20206;-80
2022/10/30 06:29:05;;;;;;;50.10;25.60;;;13.10;99.90;;;;;;4934714;29;20204;-81
2022/10/30 06:31:33;;;;;;;51.93;25.63;;;13.20;1.00;;;;;;4934547;29;20200;-81
2022/10/30 06:34:00;;;;;;;50.60;25.93;;;13.20;1.00;;;;;;4934400;29;20199;-81
2022/10/30 06:36:28;;;;;;;61.47;29.87;;;13.30;1.00;;;;;;4933210;29;20316;-81
2022/10/30 06:38:56;;;;;;;54.13;28.77;;;13.40;1.00;;;;;;4934954;29;20204;-80
2022/10/30 06:41:23;;;;;;;56.03;29.30;;;13.50;92.70;;;;;;4934660;29;20204;-81
2022/10/30 06:43:50;;;;;;;53.47;29.23;;;13.60;99.90;;;;;;4934410;29;20197;-80
2022/10/30 06:46:17;;;;;;;56.83;28.20;;;13.70;99.90;;;;;;4934227;29;20207;-81
2022/10/30 06:48:45;;;;;;;42.80;24.97;;;13.80;99.90;;;;;;4935183;29;20208;-80
2022/10/30 06:51:15;;;;;;;69.30;31.67;;;13.90;99.90;;;;;;4935034;29;20226;-81
2022/10/30 06:53:42;;;;;;;57.00;30.08;;;14.00;99.90;;;;;;4934636;29;20720;-81
2022/10/30 06:56:10;;;;;;;68.13;31.57;;;14.10;99.90;;;;;;4934727;29;20283;-81
2022/10/30 06:58:38;;;;;;;50.17;27.98;;;14.20;99.90;;;;;;4934063;29;20599;-80
2022/10/30 07:01:06;;;;;;;60.78;29.50;;;14.30;99.90;;;;;;4934301;29;20205;-81
2022/10/30 07:03:34;;;;;;;58.60;29.50;;;14.40;67.30;;;;;;4934658;29;20228;-81
2022/10/30 07:06:01;;;;;;;78.10;32.50;;;14.50;1.00;;;;;;4934345;29;20243;-81
2022/10/30 07:08:28;;;;;;;70.03;29.00;;;14.70;1.00;;;;;;4934343;29;20254;-81
2022/10/30 07:10:57;;;;;;;148.98;32.67;;;14.80;1.00;;;;;;4934088;29;20572;-81
2022/10/30 07:13:26;;;;;;;239.88;35.53;;;15.00;1.00;;;;;;4934609;29;20604;-81
2022/10/30 07:15:52;;;;;;;148.15;29.98;;;15.00;99.90;;;;;;4934297;29;20206;-81
2022/10/30 07:18:20;;;;;;;176.90;31.02;;;15.10;99.90;;;;;;4952925;29;20186;-84
2022/10/30 07:20:54;;;;;;;249.85;34.28;;;15.20;33.80;;;;;;4958234;29;20202;-81
2022/10/30 07:23:22;;;;;;;257.30;34.78;;;15.30;1.00;;;;;;4957873;29;20224;-84
2022/10/30 07:25:49;;;;;;;148.25;29.10;;;15.30;1.00;;;;;;4958097;29;20230;-79
2022/10/30 07:28:16;;;;;;;156.90;28.98;;;15.30;1.00;;;;;;4952970;29;20557;-80
2022/10/30 07:30:45;;;;;;;168.10;31.23;;;15.40;1.00;;;;;;4934456;29;20231;-80
2022/10/30 07:33:12;;;;;;;154.25;31.05;;;15.40;1.00;;;;;;4924340;29;20205;-81
2022/10/30 07:35:39;;;;;;;176.02;31.75;;;15.50;1.00;;;;;;4936879;29;20295;-81
2022/10/30 07:38:09;;;;;;;194.15;32.78;;;15.50;1.00;;;;;;4937855;29;20197;-81
2022/10/30 07:40:47;;;;;;;163.43;30.65;;;15.50;1.00;;;;;;4938850;29;20267;-83
2022/10/30 07:43:14;;;;;;;191.55;31.10;;;15.60;1.00;;;;;;4938707;29;20272;-80
2022/10/30 07:45:41;;;;;;;287.55;38.42;;;15.70;99.90;;;;;;4937370;29;20201;-81
2022/10/30 07:48:10;;;;;;;117.05;28.40;;;15.80;99.90;;;;;;4937031;29;20571;-80
2022/10/30 07:50:38;;;;;;;165.50;33.63;;;15.80;18.30;;;;;;4942978;29;20208;-83
2022/10/30 07:53:06;;;;;;;155.68;32.80;;;15.90;1.00;;;;;;4961141;29;20197;-82
2022/10/30 07:55:34;;;;;;;288.90;38.42;;;16.00;1.00;;;;;;4961241;28;20209;-81
2022/10/30 07:58:06;;;;;;;316.90;41.10;;;16.00;1.00;;;;;;4959228;29;20204;-85
2022/10/30 08:00:33;;;;;;;300.00;40.78;;;16.00;1.00;;;;;;4958592;29;20209;-83
2022/10/30 08:03:01;;;;;;;189.70;35.25;;;16.10;1.00;;;;;;4959101;28;20201;-84
2022/10/30 08:05:30;;;;;;;166.10;35.38;;;16.10;1.00;;;;;;4940092;28;20211;-87
2022/10/30 08:15:22;;;;;;;72.55;31.15;;;16.30;99.90;;;;;;4934911;29;20209;-87
2022/10/30 08:17:50;;;;;;;81.85;32.25;;;16.30;99.90;;;;;;4942965;28;20211;-82
2022/10/30 08:20:19;;;;;;;55.88;29.30;;;16.40;1.00;;;;;;4936976;29;20212;-83
2022/10/30 08:22:49;;;;;;;71.53;31.67;;;16.40;1.00;;;;;;4936750;29;20651;-84
2022/10/30 08:25:18;;;;;;;112.18;36.58;;;16.40;1.00;;;;;;4936633;28;20201;-82
2022/10/30 08:27:53;;;;;;;106.85;35.90;;;16.40;1.00;;;;;;4936881;29;20204;-81
2022/10/30 08:30:21;;;;;;;59.92;31.33;;;16.40;1.00;;;;;;4937069;29;20235;-82
2022/10/30 08:32:48;;;;;;;71.95;35.10;;;16.40;1.00;;;;;;4937173;29;20193;-81
2022/10/30 08:35:15;;;;;;;61.22;33.03;;;16.40;1.00;;;;;;4936244;29;20703;-80
2022/10/30 08:37:51;;;;;;;84.88;43.65;;;16.50;58.80;;;;;;4941760;29;20216;-80
2022/10/30 08:40:19;;;;;;;69.47;40.00;;;16.60;99.90;;;;;;4936963;29;20200;-80
2022/10/30 08:42:51;;;;;;;50.50;32.80;;;16.70;1.00;;;;;;4937036;29;20224;-78
2022/10/30 08:45:18;;;;;;;55.83;36.90;;;16.80;1.00;;;;;;4937187;29;20231;-78
2022/10/30 08:47:45;;;;;;;52.63;34.67;;;17.00;99.90;;;;;;4936376;29;20280;-80
2022/10/30 08:50:12;;;;;;;51.25;35.45;;;17.00;99.90;;;;;;4936269;29;20220;-81
2022/10/30 08:52:45;;;;;;;49.83;33.33;;;17.10;1.00;;;;;;4944276;29;20229;-84
2022/10/30 08:55:12;;;;;;;46.63;31.60;;;17.10;1.00;;;;;;4937132;29;20276;-82
2022/10/30 08:57:42;;;;;;;43.97;30.15;;;17.30;1.00;;;;;;4942032;29;20280;-84
2022/10/30 09:00:13;;;;;;;44.63;28.58;;;17.40;1.00;;;;;;4957801;29;20197;-81
2022/10/30 09:02:55;;;;;;;48.38;29.48;;;17.50;99.90;;;;;;4959572;29;20197;-82
2022/10/30 09:05:37;;;;;;;42.38;28.48;;;17.50;99.90;;;;;;4946655;29;20201;-83
2022/10/30 09:08:21;;;;;;;37.13;26.52;;;17.60;99.90;;;;;;4950444;29;20173;-84
2022/10/30 09:10:53;;;;;;;39.85;26.92;;;17.70;26.20;;;;;;4955099;29;20220;-80
2022/10/30 09:13:22;;;;;;;36.65;25.65;;;17.80;1.00;;;;;;4935892;29;20648;-82
2022/10/30 09:15:49;;;;;;;44.80;29.67;;;17.80;1.00;;;;;;4935512;29;20209;-81
2022/10/30 09:18:16;;;;;;;42.22;26.88;;;17.90;1.00;;;;;;4932403;29;20298;-78
2022/10/30 09:20:43;;;;;;;35.80;25.95;;;18.00;1.00;;;;;;4935270;29;20692;-79
2022/10/30 09:23:10;;;;;;;37.38;26.13;;;18.10;99.90;;;;;;4935557;29;20247;-81
2022/10/30 09:25:37;;;;;;;34.17;25.02;;;18.20;99.10;;;;;;4935851;29;20607;-80
2022/10/30 09:28:04;;;;;;;35.42;24.42;;;18.30;1.00;;;;;;4935971;29;20190;-81
2022/10/30 09:30:33;;;;;;;33.58;23.92;;;18.40;99.90;;;;;;4934912;29;20221;-81
2022/10/30 09:33:02;;;;;;;35.30;22.60;;;18.40;99.90;;;;;;4934656;29;20268;-80
2022/10/30 09:35:29;;;;;;;32.10;22.02;;;18.40;1.00;;;;;;4935008;29;20626;-81
2022/10/30 09:37:56;;;;;;;30.70;22.65;;;18.30;1.00;;;;;;4934851;29;20469;-80
2022/10/30 09:40:34;;;;;;;36.83;22.05;;;18.40;1.00;;;;;;4951577;29;20217;-84
2022/10/30 09:43:08;;;;;;;36.53;20.38;;;18.40;1.00;;;;;;4957830;28;20198;-81
2022/10/30 09:46:03;;;;;;;27.55;19.33;;;18.50;1.00;;;;;;4935637;29;20252;-81
2022/10/30 09:48:54;;;;;;;31.45;17.45;;;18.50;1.00;;;;;;4934055;28;20262;-81
2022/10/30 09:51:45;;;;;;;29.80;18.83;;;18.50;99.90;;;;;;4934902;29;20260;-80
2022/10/30 09:54:19;;;;;;;28.75;18.45;;;18.60;99.90;;;;;;4934093;29;20197;-81
2022/10/30 09:56:51;;;;;;;23.65;16.73;;;18.70;6.80;;;;;;4931589;29;20609;-81
2022/10/30 09:59:30;;;;;;;31.73;19.38;;;18.70;1.00;;;;;;4934388;29;20544;-80
2022/10/30 10:02:04;;;;;;;35.95;18.20;;;18.80;1.00;;;;;;4934809;29;20205;-80
2022/10/30 10:04:39;;;;;;;29.50;16.30;;;18.80;99.90;;;;;;4934698;29;20248;-81
2022/10/30 10:07:15;;;;;;;25.60;15.25;;;19.00;99.90;;;;;;4935210;29;20193;-80
2022/10/30 10:09:43;;;;;;;26.70;15.60;;;19.20;1.00;;;;;;4934651;29;20260;-80
2022/10/30 10:12:18;;;;;;;31.30;16.10;;;19.50;1.00;;;;;;4934956;29;20307;-80
2022/10/30 10:14:48;;;;;;;27.85;14.98;;;19.70;99.90;;;;;;4935105;29;20270;-80
2022/10/30 10:17:25;;;;;;;22.52;14.45;;;19.90;99.90;;;;;;4935213;29;20205;-80
2022/10/30 10:19:58;;;;;;;28.77;16.63;;;19.90;1.00;;;;;;4935315;29;20196;-80
2022/10/30 10:22:29;;;;;;;27.13;16.70;;;19.90;1.00;;;;;;4934861;29;20604;-80
2022/10/30 10:24:57;;;;;;;26.42;15.45;;;19.90;1.00;;;;;;4934011;29;21375;-81
2022/10/30 10:27:39;;;;;;;21.13;14.77;;;19.90;1.00;;;;;;4934904;29;20613;-80
2022/10/30 10:30:12;;;;;;;27.08;15.82;;;19.90;1.00;;;;;;4934776;29;20193;-80
2022/10/30 10:33:01;;;;;;;27.05;15.43;;;19.90;1.00;;;;;;4934485;29;20754;-80
2022/10/30 10:35:47;;;;;;;47.10;33.28;;;19.90;1.00;;;;;;4934707;29;20544;-82
2022/10/30 10:38:30;;;;;;;33.03;22.02;;;20.00;1.00;;;;;;4934625;29;20193;-80
2022/10/30 10:41:06;;;;;;;30.27;20.15;;;20.10;1.00;;;;;;4934782;29;20221;-81
2022/10/30 10:43:46;;;;;;;29.55;18.52;;;20.10;1.00;;;;;;4933790;29;20240;-81
2022/10/30 10:46:28;;;;;;;30.20;20.98;;;20.00;1.00;;;;;;4934570;29;20193;-80
2022/10/30 10:49:14;;;;;;;27.88;18.60;;;19.80;1.00;;;;;;4934553;29;20252;-80
2022/10/30 10:51:45;;;;;;;28.25;21.35;;;19.70;1.00;;;;;;4934294;29;20256;-80
2022/10/30 10:54:16;;;;;;;29.35;21.02;;;19.60;1.00;;;;;;4936066;29;20719;-81
2022/10/30 10:56:49;;;;;;;24.35;18.50;;;19.50;1.00;;;;;;4936120;29;20244;-83
2022/10/30 10:59:20;;;;;;;34.80;22.33;;;19.30;1.00;;;;;;4947650;28;20212;-82
2022/10/30 11:01:56;;;;;;;29.52;22.80;;;19.20;1.00;;;;;;4934323;29;20248;-82
2022/10/30 11:04:31;;;;;;;35.22;26.77;;;19.10;1.00;;;;;;4928645;29;20188;-81
2022/10/30 11:07:04;;;;;;;38.28;24.98;;;19.00;1.00;;;;;;4936160;29;20723;-80
2022/10/30 11:09:31;;;;;;;32.67;22.02;;;18.90;1.00;;;;;;4938251;29;20280;-78
2022/10/30 11:11:58;;;;;;;28.50;20.98;;;18.80;1.00;;;;;;4947368;29;20221;-80
2022/10/30 11:14:34;;;;;;;37.50;24.95;;;18.80;1.00;;;;;;4955734;29;20201;-80
2022/10/30 11:17:10;;;;;;;26.17;18.48;;;18.70;1.00;;;;;;4940531;29;20189;-81
2022/10/30 11:19:39;;;;;;;29.50;23.40;;;18.70;44.20;;;;;;4939226;29;20252;-81
2022/10/30 11:22:23;;;;;;;31.08;21.90;;;18.70;99.90;;;;;;4950110;29;20209;-84
2022/10/30 11:24:50;;;;;;;31.23;24.30;;;18.70;99.90;;;;;;4961531;28;20193;-81
2022/10/30 11:27:23;;;;;;;27.80;21.50;;;18.70;67.40;;;;;;4937433;29;20205;-81
2022/10/30 11:29:54;;;;;;;29.30;21.45;;;18.70;99.90;;;;;;4937796;29;20181;-81
2022/10/30 11:32:25;;;;;;;29.75;21.48;;;18.80;90.50;;;;;;4936867;29;20213;-82
2022/10/30 11:35:03;;;;;;;27.67;20.75;;;18.80;97.30;;;;;;4938181;29;20189;-82
2022/10/30 11:37:32;;;;;;;31.02;21.35;;;18.80;52.20;;;;;;4937444;29;20283;-82
2022/10/30 11:40:06;;;;;;;34.80;23.70;;;18.80;26.00;;;;;;4937803;29;20616;-81
2022/10/30 11:42:34;;;;;;;35.53;23.52;;;18.90;46.00;;;;;;4937559;29;20244;-82
2022/10/30 11:45:02;;;;;;;31.13;22.20;;;18.90;18.20;;;;;;4937709;29;20284;-81
2022/10/30 11:47:34;;;;;;;27.20;20.90;;;18.90;1.00;;;;;;4937888;29;20201;-83
2022/10/30 11:50:06;;;;;;;29.55;19.42;;;19.00;1.00;;;;;;4937930;29;20249;-82
2022/10/30 11:52:39;;;;;;;30.85;19.77;;;19.10;1.00;;;;;;4937285;29;20213;-81
2022/10/30 11:55:15;;;;;;;27.40;19.45;;;19.30;1.00;;;;;;4937741;29;20185;-81
2022/10/30 11:57:44;;;;;;;28.85;20.25;;;19.40;1.00;;;;;;4937568;29;20185;-81
2022/10/30 12:00:17;;;;;;;31.73;19.75;;;19.60;1.00;;;;;;4937079;29;20547;-81
2022/10/30 12:02:46;;;;;;;29.17;18.83;;;19.60;1.00;;;;;;4937456;29;20603;-81
2022/10/30 12:05:33;;;;;;;31.67;19.02;;;19.70;1.00;;;;;;4937264;29;20205;-81
2022/10/30 12:08:18;;;;;;;29.38;21.08;;;19.70;1.00;;;;;;4937425;29;20193;-81
2022/10/30 12:10:54;;;;;;;25.92;17.63;;;19.60;1.00;;;;;;4937198;29;20201;-82
2022/10/30 12:13:23;;;;;;;30.20;20.77;;;19.70;1.00;;;;;;4937509;29;20185;-81
2022/10/30 12:16:03;;;;;;;28.50;19.50;;;19.60;1.00;;;;;;4937207;29;20197;-82
2022/10/30 12:18:30;;;;;;;22.90;17.70;;;19.60;1.00;;;;;;4937122;29;20251;-81
2022/10/30 12:20:59;;;;;;;27.90;18.40;;;19.60;1.00;;;;;;4936895;29;20208;-82
2022/10/30 12:23:28;;;;;;;24.60;16.52;;;19.60;1.00;;;;;;4936736;29;20588;-81
2022/10/30 12:25:58;;;;;;;25.50;17.58;;;19.60;1.00;;;;;;4936800;29;20664;-81
2022/10/30 12:28:27;;;;;;;22.33;17.27;;;19.50;1.00;;;;;;4936884;29;20629;-82
2022/10/30 12:34:14;;;;;;;25.20;16.17;;;19.40;1.00;;;;;;4958004;28;20197;-84
2022/10/30 12:36:48;;;;;;;24.33;16.25;;;19.30;1.00;;;;;;4938569;29;20229;-80
2022/10/30 12:39:23;;;;;;;22.45;15.98;;;19.20;1.00;;;;;;4936852;29;20189;-79
2022/10/30 12:41:58;;;;;;;21.70;16.33;;;19.20;1.00;;;;;;4936397;29;20184;-80
2022/10/30 12:44:29;;;;;;;24.73;16.20;;;19.20;1.00;;;;;;4937042;29;20185;-79
2022/10/30 12:47:02;;;;;;;20.30;15.40;;;19.20;1.00;;;;;;4936415;29;20244;-79
2022/10/30 12:49:39;;;;;;;23.02;15.52;;;19.20;1.00;;;;;;4936673;29;20677;-79
2022/10/30 12:52:13;;;;;;;24.42;15.23;;;19.20;1.00;;;;;;4936186;29;20205;-80
2022/10/30 12:54:46;;;;;;;22.83;16.05;;;19.20;1.00;;;;;;4936242;29;20186;-80
2022/10/30 12:57:16;;;;;;;22.88;15.13;;;19.20;1.00;;;;;;4936326;29;20583;-80